sensor_id;sensor_type;location;lat;lon;timestamp;temperature;humidity
1568;DHT22;777;47.156;8.326;2023-05-10T00:00:39;11.80;99.90
1568;DHT22;777;47.156;8.326;2023-05-10T00:03:06;11.70;99.90
1568;DHT22;777;47.156;8.326;2023-05-10T00:05:33;11.60;99.90
1568;DHT22;777;47.156;8.326;2023-05-10T00:08:00;11.50;99.90
1568;DHT22;777;47.156;8.326;2023-05-10T00:10:27;11.50;99.90
1568;DHT22;777;47.156;8.326;2023-05-10T00:12:54;11.50;99.90
1568;DHT22;777;47.156;8.326;2023-05-10T00:15:22;11.50;99.90
1568;DHT22;777;47.156;8.326;2023-05-10T00:17:49;11.40;99.90
1568;DHT22;777;47.156;8.326;2023-05-10T00:20:16;11.50;99.90
1568;DHT22;777;47.156;8.326;2023-05-10T00:22:43;11.50;99.90
1568;DHT22;777;47.156;8.326;2023-05-10T00:25:10;11.40;99.90
1568;DHT22;777;47.156;8.326;2023-05-10T00:27:37;11.50;99.90
1568;DHT22;777;47.156;8.326;2023-05-10T00:30:05;11.50;99.90
1568;DHT22;777;47.156;8.326;2023-05-10T00:32:35;11.40;99.90
1568;DHT22;777;47.156;8.326;2023-05-10T00:35:02;11.30;99.90
1568;DHT22;777;47.156;8.326;2023-05-10T00:37:29;11.30;99.90
1568;DHT22;777;47.156;8.326;2023-05-10T00:39:57;11.40;99.90
1568;DHT22;777;47.156;8.326;2023-05-10T00:42:24;11.40;99.90
1568;DHT22;777;47.156;8.326;2023-05-10T00:44:53;11.40;99.90
1568;DHT22;777;47.156;8.326;2023-05-10T00:47:20;11.40;99.90
1568;DHT22;777;47.156;8.326;2023-05-10T00:49:49;11.40;99.90
1568;DHT22;777;47.156;8.326;2023-05-10T00:52:16;11.40;99.90
1568;DHT22;777;47.156;8.326;2023-05-10T00:54:43;11.30;99.90
1568;DHT22;777;47.156;8.326;2023-05-10T00:57:10;11.30;99.90
1568;DHT22;777;47.156;8.326;2023-05-10T00:59:37;11.20;99.90
1568;DHT22;777;47.156;8.326;2023-05-10T01:02:05;11.30;99.90
1568;DHT22;777;47.156;8.326;2023-05-10T01:04:33;11.30;99.90
1568;DHT22;777;47.156;8.326;2023-05-10T01:07:03;11.30;99.90
1568;DHT22;777;47.156;8.326;2023-05-10T01:09:31;11.30;99.90
1568;DHT22;777;47.156;8.326;2023-05-10T01:11:58;11.40;99.90
1568;DHT22;777;47.156;8.326;2023-05-10T01:14:28;11.40;99.90
1568;DHT22;777;47.156;8.326;2023-05-10T01:16:56;11.40;99.90
1568;DHT22;777;47.156;8.326;2023-05-10T01:19:25;11.40;99.90
1568;DHT22;777;47.156;8.326;2023-05-10T01:22:00;11.40;99.90
1568;DHT22;777;47.156;8.326;2023-05-10T01:28:07;11.40;99.90
1568;DHT22;777;47.156;8.326;2023-05-10T01:33:41;11.40;99.90
1568;DHT22;777;47.156;8.326;2023-05-10T01:36:16;11.30;99.90
1568;DHT22;777;47.156;8.326;2023-05-10T01:38:55;11.30;99.90
1568;DHT22;777;47.156;8.326;2023-05-10T01:41:28;11.30;99.90
1568;DHT22;777;47.156;8.326;2023-05-10T01:44:04;11.30;99.90
1568;DHT22;777;47.156;8.326;2023-05-10T01:46:35;11.30;99.90
1568;DHT22;777;47.156;8.326;2023-05-10T01:49:08;11.40;99.90
1568;DHT22;777;47.156;8.326;2023-05-10T01:51:40;11.40;99.90
1568;DHT22;777;47.156;8.326;2023-05-10T01:54:09;11.40;99.90
1568;DHT22;777;47.156;8.326;2023-05-10T01:56:38;11.40;99.90
1568;DHT22;777;47.156;8.326;2023-05-10T01:59:15;11.40;99.90
1568;DHT22;777;47.156;8.326;2023-05-10T02:01:45;11.40;99.90
1568;DHT22;777;47.156;8.326;2023-05-10T02:04:16;11.40;99.90
1568;DHT22;777;47.156;8.326;2023-05-10T02:06:46;11.40;99.90
1568;DHT22;777;47.156;8.326;2023-05-10T02:09:14;11.30;99.90
1568;DHT22;777;47.156;8.326;2023-05-10T02:11:43;11.30;99.90
1568;DHT22;777;47.156;8.326;2023-05-10T02:14:11;11.30;99.90
1568;DHT22;777;47.156;8.326;2023-05-10T02:16:39;11.40;99.90
1568;DHT22;777;47.156;8.326;2023-05-10T02:19:07;11.40;99.90
1568;DHT22;777;47.156;8.326;2023-05-10T02:21:38;11.30;99.90
1568;DHT22;777;47.156;8.326;2023-05-10T02:24:06;11.30;99.90
1568;DHT22;777;47.156;8.326;2023-05-10T02:26:35;11.30;99.90
1568;DHT22;777;47.156;8.326;2023-05-10T02:29:03;11.30;99.90
1568;DHT22;777;47.156;8.326;2023-05-10T02:31:32;11.40;99.90
1568;DHT22;777;47.156;8.326;2023-05-10T02:34:02;11.40;99.90
1568;DHT22;777;47.156;8.326;2023-05-10T02:36:31;11.30;99.90
1568;DHT22;777;47.156;8.326;2023-05-10T02:39:01;11.40;99.90
1568;DHT22;777;47.156;8.326;2023-05-10T02:41:31;11.40;99.90
1568;DHT22;777;47.156;8.326;2023-05-10T02:44:00;11.40;99.90
1568;DHT22;777;47.156;8.326;2023-05-10T02:46:28;11.50;99.90
1568;DHT22;777;47.156;8.326;2023-05-10T02:48:55;11.50;99.90
1568;DHT22;777;47.156;8.326;2023-05-10T02:51:25;11.50;99.90
1568;DHT22;777;47.156;8.326;2023-05-10T02:53:55;11.50;99.90
1568;DHT22;777;47.156;8.326;2023-05-10T02:56:28;11.50;99.90
1568;DHT22;777;47.156;8.326;2023-05-10T02:58:56;11.50;99.90
1568;DHT22;777;47.156;8.326;2023-05-10T03:01:23;11.60;99.90
1568;DHT22;777;47.156;8.326;2023-05-10T03:03:50;11.60;99.90
1568;DHT22;777;47.156;8.326;2023-05-10T03:06:17;11.60;99.90
1568;DHT22;777;47.156;8.326;2023-05-10T03:08:44;11.60;99.90
1568;DHT22;777;47.156;8.326;2023-05-10T03:11:28;11.60;99.90
1568;DHT22;777;47.156;8.326;2023-05-10T03:14:10;11.60;99.90
1568;DHT22;777;47.156;8.326;2023-05-10T03:16:42;11.50;99.90
1568;DHT22;777;47.156;8.326;2023-05-10T03:19:16;11.30;99.90
1568;DHT22;777;47.156;8.326;2023-05-10T03:21:49;11.40;99.90
1568;DHT22;777;47.156;8.326;2023-05-10T03:24:17;11.20;99.90
1568;DHT22;777;47.156;8.326;2023-05-10T03:26:49;11.30;99.90
1568;DHT22;777;47.156;8.326;2023-05-10T03:29:17;11.30;99.90
1568;DHT22;777;47.156;8.326;2023-05-10T03:31:45;11.40;99.90
1568;DHT22;777;47.156;8.326;2023-05-10T03:34:14;11.40;99.90
1568;DHT22;777;47.156;8.326;2023-05-10T03:36:41;11.40;99.90
1568;DHT22;777;47.156;8.326;2023-05-10T03:39:08;11.30;99.90
1568;DHT22;777;47.156;8.326;2023-05-10T03:41:36;11.30;99.90
1568;DHT22;777;47.156;8.326;2023-05-10T03:44:05;11.20;99.90
1568;DHT22;777;47.156;8.326;2023-05-10T03:46:32;11.30;99.90
1568;DHT22;777;47.156;8.326;2023-05-10T03:48:59;11.20;99.90
1568;DHT22;777;47.156;8.326;2023-05-10T03:51:26;11.20;99.90
1568;DHT22;777;47.156;8.326;2023-05-10T03:53:54;11.20;99.90
1568;DHT22;777;47.156;8.326;2023-05-10T03:56:21;11.20;99.90
1568;DHT22;777;47.156;8.326;2023-05-10T03:58:48;11.10;99.90
1568;DHT22;777;47.156;8.326;2023-05-10T04:01:16;11.30;99.90
1568;DHT22;777;47.156;8.326;2023-05-10T04:03:44;11.30;99.90
1568;DHT22;777;47.156;8.326;2023-05-10T04:06:11;11.10;99.90
1568;DHT22;777;47.156;8.326;2023-05-10T04:08:39;11.40;99.90
1568;DHT22;777;47.156;8.326;2023-05-10T04:11:06;11.50;99.90
1568;DHT22;777;47.156;8.326;2023-05-10T04:13:34;11.30;99.90
1568;DHT22;777;47.156;8.326;2023-05-10T04:16:01;11.00;99.90
1568;DHT22;777;47.156;8.326;2023-05-10T04:18:29;10.80;99.90
1568;DHT22;777;47.156;8.326;2023-05-10T04:20:57;10.50;99.90
1568;DHT22;777;47.156;8.326;2023-05-10T04:23:24;10.40;99.90
1568;DHT22;777;47.156;8.326;2023-05-10T04:25:51;10.40;99.90
1568;DHT22;777;47.156;8.326;2023-05-10T04:28:18;10.20;99.90
1568;DHT22;777;47.156;8.326;2023-05-10T04:30:45;10.20;99.90
1568;DHT22;777;47.156;8.326;2023-05-10T04:33:12;10.20;99.90
1568;DHT22;777;47.156;8.326;2023-05-10T04:35:41;10.30;99.90
1568;DHT22;777;47.156;8.326;2023-05-10T04:38:08;10.20;99.90
1568;DHT22;777;47.156;8.326;2023-05-10T04:40:35;10.30;99.90
1568;DHT22;777;47.156;8.326;2023-05-10T04:43:02;10.10;99.90
1568;DHT22;777;47.156;8.326;2023-05-10T04:45:29;10.20;99.90
1568;DHT22;777;47.156;8.326;2023-05-10T04:47:56;10.20;99.90
1568;DHT22;777;47.156;8.326;2023-05-10T04:50:23;10.20;99.90
1568;DHT22;777;47.156;8.326;2023-05-10T04:52:51;10.30;99.90
1568;DHT22;777;47.156;8.326;2023-05-10T04:55:18;10.30;99.90
1568;DHT22;777;47.156;8.326;2023-05-10T04:57:45;10.30;99.90
1568;DHT22;777;47.156;8.326;2023-05-10T05:00:13;10.40;99.90
1568;DHT22;777;47.156;8.326;2023-05-10T05:02:42;10.40;99.90
1568;DHT22;777;47.156;8.326;2023-05-10T05:05:10;10.40;99.90
1568;DHT22;777;47.156;8.326;2023-05-10T05:07:37;10.50;99.90
1568;DHT22;777;47.156;8.326;2023-05-10T05:10:07;10.50;99.90
1568;DHT22;777;47.156;8.326;2023-05-10T05:12:34;10.60;99.90
1568;DHT22;777;47.156;8.326;2023-05-10T05:15:01;10.70;99.90
1568;DHT22;777;47.156;8.326;2023-05-10T05:17:30;10.60;99.90
1568;DHT22;777;47.156;8.326;2023-05-10T05:19:57;10.40;99.90
1568;DHT22;777;47.156;8.326;2023-05-10T05:22:24;10.40;99.90
1568;DHT22;777;47.156;8.326;2023-05-10T05:24:53;10.20;99.90
1568;DHT22;777;47.156;8.326;2023-05-10T05:27:22;10.00;99.90
1568;DHT22;777;47.156;8.326;2023-05-10T05:29:52;10.00;99.90
1568;DHT22;777;47.156;8.326;2023-05-10T05:32:19;10.10;99.90
1568;DHT22;777;47.156;8.326;2023-05-10T05:34:47;10.10;99.90
1568;DHT22;777;47.156;8.326;2023-05-10T05:37:15;10.20;99.90
1568;DHT22;777;47.156;8.326;2023-05-10T05:39:42;10.30;99.90
1568;DHT22;777;47.156;8.326;2023-05-10T05:42:09;10.30;99.90
1568;DHT22;777;47.156;8.326;2023-05-10T05:44:38;10.30;99.90
1568;DHT22;777;47.156;8.326;2023-05-10T05:47:05;10.30;99.90
1568;DHT22;777;47.156;8.326;2023-05-10T05:49:32;10.30;99.90
1568;DHT22;777;47.156;8.326;2023-05-10T05:52:00;10.30;99.90
1568;DHT22;777;47.156;8.326;2023-05-10T05:54:27;10.50;99.90
1568;DHT22;777;47.156;8.326;2023-05-10T05:56:55;10.50;99.90
1568;DHT22;777;47.156;8.326;2023-05-10T05:59:22;10.70;99.90
1568;DHT22;777;47.156;8.326;2023-05-10T06:01:51;10.60;99.90
1568;DHT22;777;47.156;8.326;2023-05-10T06:04:18;10.70;99.90
1568;DHT22;777;47.156;8.326;2023-05-10T06:06:45;10.80;99.90
1568;DHT22;777;47.156;8.326;2023-05-10T06:09:12;10.80;99.90
1568;DHT22;777;47.156;8.326;2023-05-10T06:11:39;10.80;99.90
1568;DHT22;777;47.156;8.326;2023-05-10T06:14:06;10.70;99.90
1568;DHT22;777;47.156;8.326;2023-05-10T06:16:33;10.80;99.90
1568;DHT22;777;47.156;8.326;2023-05-10T06:19:02;11.00;99.90
1568;DHT22;777;47.156;8.326;2023-05-10T06:21:29;11.00;99.90
1568;DHT22;777;47.156;8.326;2023-05-10T06:23:56;11.00;99.90
1568;DHT22;777;47.156;8.326;2023-05-10T06:26:23;11.10;99.90
1568;DHT22;777;47.156;8.326;2023-05-10T06:28:51;11.10;99.90
1568;DHT22;777;47.156;8.326;2023-05-10T06:31:18;11.00;99.90
1568;DHT22;777;47.156;8.326;2023-05-10T06:33:44;11.00;99.90
1568;DHT22;777;47.156;8.326;2023-05-10T06:36:13;11.20;99.90
1568;DHT22;777;47.156;8.326;2023-05-10T06:38:40;11.30;99.90
1568;DHT22;777;47.156;8.326;2023-05-10T06:41:07;11.30;99.90
1568;DHT22;777;47.156;8.326;2023-05-10T06:43:34;11.30;99.90
1568;DHT22;777;47.156;8.326;2023-05-10T06:46:02;11.30;99.90
1568;DHT22;777;47.156;8.326;2023-05-10T06:48:29;11.40;99.90
1568;DHT22;777;47.156;8.326;2023-05-10T06:50:57;11.30;99.90
1568;DHT22;777;47.156;8.326;2023-05-10T06:53:25;11.30;99.90
1568;DHT22;777;47.156;8.326;2023-05-10T06:55:53;11.40;99.90
1568;DHT22;777;47.156;8.326;2023-05-10T06:58:19;11.40;99.90
1568;DHT22;777;47.156;8.326;2023-05-10T07:00:46;11.30;99.90
1568;DHT22;777;47.156;8.326;2023-05-10T07:03:13;11.20;99.90
1568;DHT22;777;47.156;8.326;2023-05-10T07:05:40;11.40;99.90
1568;DHT22;777;47.156;8.326;2023-05-10T07:08:08;11.30;99.90
1568;DHT22;777;47.156;8.326;2023-05-10T07:10:36;11.30;99.90
1568;DHT22;777;47.156;8.326;2023-05-10T07:13:03;11.40;99.90
1568;DHT22;777;47.156;8.326;2023-05-10T07:15:30;11.40;99.90
1568;DHT22;777;47.156;8.326;2023-05-10T07:17:57;11.20;99.90
1568;DHT22;777;47.156;8.326;2023-05-10T07:20:24;11.10;99.90
1568;DHT22;777;47.156;8.326;2023-05-10T07:22:51;11.00;99.90
1568;DHT22;777;47.156;8.326;2023-05-10T07:25:18;11.00;99.90
1568;DHT22;777;47.156;8.326;2023-05-10T07:27:47;11.20;99.90
1568;DHT22;777;47.156;8.326;2023-05-10T07:30:14;11.20;99.90
1568;DHT22;777;47.156;8.326;2023-05-10T07:32:41;11.00;99.90
1568;DHT22;777;47.156;8.326;2023-05-10T07:35:09;11.20;99.90
1568;DHT22;777;47.156;8.326;2023-05-10T07:37:35;11.40;99.90
1568;DHT22;777;47.156;8.326;2023-05-10T07:40:03;11.20;99.90
1568;DHT22;777;47.156;8.326;2023-05-10T07:42:30;11.30;99.90
1568;DHT22;777;47.156;8.326;2023-05-10T07:44:58;11.20;99.90
1568;DHT22;777;47.156;8.326;2023-05-10T07:47:25;11.30;99.90
1568;DHT22;777;47.156;8.326;2023-05-10T07:49:52;10.90;99.90
1568;DHT22;777;47.156;8.326;2023-05-10T07:52:19;10.90;99.90
1568;DHT22;777;47.156;8.326;2023-05-10T07:54:46;10.90;99.90
1568;DHT22;777;47.156;8.326;2023-05-10T07:57:13;10.80;99.90
1568;DHT22;777;47.156;8.326;2023-05-10T07:59:43;10.90;99.90
1568;DHT22;777;47.156;8.326;2023-05-10T08:02:12;10.80;99.90
1568;DHT22;777;47.156;8.326;2023-05-10T08:04:39;10.70;99.90
1568;DHT22;777;47.156;8.326;2023-05-10T08:07:06;10.70;99.90
1568;DHT22;777;47.156;8.326;2023-05-10T08:09:33;10.70;99.90
1568;DHT22;777;47.156;8.326;2023-05-10T08:12:00;10.90;99.90
1568;DHT22;777;47.156;8.326;2023-05-10T08:14:28;10.90;99.90
1568;DHT22;777;47.156;8.326;2023-05-10T08:16:55;10.90;99.90
1568;DHT22;777;47.156;8.326;2023-05-10T08:19:24;11.10;99.90
1568;DHT22;777;47.156;8.326;2023-05-10T08:21:51;11.10;99.90
1568;DHT22;777;47.156;8.326;2023-05-10T08:24:19;11.40;99.90
1568;DHT22;777;47.156;8.326;2023-05-10T08:26:46;11.60;99.90
1568;DHT22;777;47.156;8.326;2023-05-10T08:29:13;11.60;99.90
1568;DHT22;777;47.156;8.326;2023-05-10T08:31:40;11.90;99.90
1568;DHT22;777;47.156;8.326;2023-05-10T08:34:08;11.70;99.90
1568;DHT22;777;47.156;8.326;2023-05-10T08:36:36;11.60;99.90
1568;DHT22;777;47.156;8.326;2023-05-10T08:39:03;11.70;99.90
1568;DHT22;777;47.156;8.326;2023-05-10T08:41:33;11.80;99.90
1568;DHT22;777;47.156;8.326;2023-05-10T08:44:04;11.80;99.90
1568;DHT22;777;47.156;8.326;2023-05-10T08:46:33;11.70;99.90
1568;DHT22;777;47.156;8.326;2023-05-10T08:49:02;11.80;99.90
1568;DHT22;777;47.156;8.326;2023-05-10T08:51:34;11.80;99.90
1568;DHT22;777;47.156;8.326;2023-05-10T08:54:04;12.00;99.90
1568;DHT22;777;47.156;8.326;2023-05-10T08:56:31;11.80;99.90
1568;DHT22;777;47.156;8.326;2023-05-10T08:58:58;11.90;99.90
1568;DHT22;777;47.156;8.326;2023-05-10T09:01:27;12.10;99.90
1568;DHT22;777;47.156;8.326;2023-05-10T09:03:54;12.00;99.90
1568;DHT22;777;47.156;8.326;2023-05-10T09:06:21;11.90;99.90
1568;DHT22;777;47.156;8.326;2023-05-10T09:08:49;12.00;99.90
1568;DHT22;777;47.156;8.326;2023-05-10T09:11:20;11.80;99.90
1568;DHT22;777;47.156;8.326;2023-05-10T09:13:48;11.90;99.90
1568;DHT22;777;47.156;8.326;2023-05-10T09:16:17;11.90;99.90
1568;DHT22;777;47.156;8.326;2023-05-10T09:18:44;12.00;99.90
1568;DHT22;777;47.156;8.326;2023-05-10T09:21:11;11.90;99.90
1568;DHT22;777;47.156;8.326;2023-05-10T09:23:38;11.80;99.90
1568;DHT22;777;47.156;8.326;2023-05-10T09:26:09;11.90;99.90
1568;DHT22;777;47.156;8.326;2023-05-10T09:28:50;11.90;99.90
1568;DHT22;777;47.156;8.326;2023-05-10T09:31:18;12.00;99.90
1568;DHT22;777;47.156;8.326;2023-05-10T09:33:46;12.00;99.90
1568;DHT22;777;47.156;8.326;2023-05-10T09:36:13;12.10;99.90
1568;DHT22;777;47.156;8.326;2023-05-10T09:38:47;12.30;99.90
1568;DHT22;777;47.156;8.326;2023-05-10T09:41:18;12.30;99.90
1568;DHT22;777;47.156;8.326;2023-05-10T09:43:47;12.50;99.90
1568;DHT22;777;47.156;8.326;2023-05-10T09:46:15;12.70;99.90
1568;DHT22;777;47.156;8.326;2023-05-10T09:48:44;12.60;99.90
1568;DHT22;777;47.156;8.326;2023-05-10T09:51:19;12.90;99.90
1568;DHT22;777;47.156;8.326;2023-05-10T09:53:46;12.90;99.90
1568;DHT22;777;47.156;8.326;2023-05-10T09:56:13;13.00;99.90
1568;DHT22;777;47.156;8.326;2023-05-10T09:58:40;13.30;99.90
1568;DHT22;777;47.156;8.326;2023-05-10T10:01:12;13.70;99.90
1568;DHT22;777;47.156;8.326;2023-05-10T10:03:42;13.70;99.90
1568;DHT22;777;47.156;8.326;2023-05-10T10:06:09;13.60;99.90
1568;DHT22;777;47.156;8.326;2023-05-10T10:08:36;13.50;99.90
1568;DHT22;777;47.156;8.326;2023-05-10T10:11:03;13.70;99.90
1568;DHT22;777;47.156;8.326;2023-05-10T10:13:31;13.70;99.90
1568;DHT22;777;47.156;8.326;2023-05-10T10:15:58;13.50;99.90
1568;DHT22;777;47.156;8.326;2023-05-10T10:18:27;13.40;99.90
1568;DHT22;777;47.156;8.326;2023-05-10T10:20:55;13.30;99.90
1568;DHT22;777;47.156;8.326;2023-05-10T10:23:22;13.40;99.90
1568;DHT22;777;47.156;8.326;2023-05-10T10:25:50;13.50;99.90
1568;DHT22;777;47.156;8.326;2023-05-10T10:28:24;13.50;99.90
1568;DHT22;777;47.156;8.326;2023-05-10T10:30:55;13.60;99.90
1568;DHT22;777;47.156;8.326;2023-05-10T10:33:36;13.90;99.90
1568;DHT22;777;47.156;8.326;2023-05-10T10:36:06;14.50;99.90
1568;DHT22;777;47.156;8.326;2023-05-10T10:38:38;14.90;99.90
1568;DHT22;777;47.156;8.326;2023-05-10T10:41:32;14.90;99.90
1568;DHT22;777;47.156;8.326;2023-05-10T10:44:36;15.00;99.90
1568;DHT22;777;47.156;8.326;2023-05-10T10:47:06;15.40;99.90
1568;DHT22;777;47.156;8.326;2023-05-10T10:49:42;15.30;99.90
1568;DHT22;777;47.156;8.326;2023-05-10T10:52:14;15.60;99.90
1568;DHT22;777;47.156;8.326;2023-05-10T10:54:44;15.50;99.90
1568;DHT22;777;47.156;8.326;2023-05-10T10:57:14;15.80;99.90
1568;DHT22;777;47.156;8.326;2023-05-10T10:59:42;15.50;99.90
1568;DHT22;777;47.156;8.326;2023-05-10T11:02:09;15.20;99.90
1568;DHT22;777;47.156;8.326;2023-05-10T11:04:44;14.90;99.90
1568;DHT22;777;47.156;8.326;2023-05-10T11:07:16;14.80;99.90
1568;DHT22;777;47.156;8.326;2023-05-10T11:09:44;14.50;99.90
1568;DHT22;777;47.156;8.326;2023-05-10T11:12:12;14.60;99.90
1568;DHT22;777;47.156;8.326;2023-05-10T11:14:40;14.80;99.90
1568;DHT22;777;47.156;8.326;2023-05-10T11:17:22;15.30;99.90
1568;DHT22;777;47.156;8.326;2023-05-10T11:20:10;16.50;99.90
1568;DHT22;777;47.156;8.326;2023-05-10T11:22:50;16.80;99.90
1568;DHT22;777;47.156;8.326;2023-05-10T11:25:17;17.00;99.90
1568;DHT22;777;47.156;8.326;2023-05-10T11:27:44;17.30;99.90
1568;DHT22;777;47.156;8.326;2023-05-10T11:30:12;17.80;99.90
1568;DHT22;777;47.156;8.326;2023-05-10T11:32:42;17.80;99.90
1568;DHT22;777;47.156;8.326;2023-05-10T11:35:11;17.50;99.90
1568;DHT22;777;47.156;8.326;2023-05-10T11:37:41;16.60;99.90
1568;DHT22;777;47.156;8.326;2023-05-10T11:40:10;16.20;99.90
1568;DHT22;777;47.156;8.326;2023-05-10T11:42:37;15.80;99.90
1568;DHT22;777;47.156;8.326;2023-05-10T11:45:06;15.40;99.90
1568;DHT22;777;47.156;8.326;2023-05-10T11:47:33;15.10;99.90
1568;DHT22;777;47.156;8.326;2023-05-10T11:50:01;14.90;99.90
1568;DHT22;777;47.156;8.326;2023-05-10T11:52:35;14.70;99.90
1568;DHT22;777;47.156;8.326;2023-05-10T11:55:03;14.60;99.90
1568;DHT22;777;47.156;8.326;2023-05-10T11:57:30;14.50;99.90
1568;DHT22;777;47.156;8.326;2023-05-10T11:59:58;14.40;99.90
1568;DHT22;777;47.156;8.326;2023-05-10T12:02:25;14.40;99.90
1568;DHT22;777;47.156;8.326;2023-05-10T12:04:52;14.20;99.90
1568;DHT22;777;47.156;8.326;2023-05-10T12:07:19;13.40;99.90
1568;DHT22;777;47.156;8.326;2023-05-10T12:10:03;12.40;99.90
1568;DHT22;777;47.156;8.326;2023-05-10T12:12:36;12.00;99.90
1568;DHT22;777;47.156;8.326;2023-05-10T12:15:05;11.90;99.90
1568;DHT22;777;47.156;8.326;2023-05-10T12:17:32;11.90;99.90
1568;DHT22;777;47.156;8.326;2023-05-10T12:20:12;11.90;99.90
1568;DHT22;777;47.156;8.326;2023-05-10T12:22:40;12.00;99.90
1568;DHT22;777;47.156;8.326;2023-05-10T12:25:09;12.20;99.90
1568;DHT22;777;47.156;8.326;2023-05-10T12:27:37;12.50;99.90
1568;DHT22;777;47.156;8.326;2023-05-10T12:30:05;12.80;99.90
1568;DHT22;777;47.156;8.326;2023-05-10T12:32:40;12.80;99.90
1568;DHT22;777;47.156;8.326;2023-05-10T12:35:07;12.90;99.90
1568;DHT22;777;47.156;8.326;2023-05-10T12:37:35;13.30;99.90
1568;DHT22;777;47.156;8.326;2023-05-10T12:40:10;13.60;99.90
1568;DHT22;777;47.156;8.326;2023-05-10T12:42:38;14.00;99.90
1568;DHT22;777;47.156;8.326;2023-05-10T12:45:07;14.00;99.90
1568;DHT22;777;47.156;8.326;2023-05-10T12:47:34;14.50;99.90
1568;DHT22;777;47.156;8.326;2023-05-10T12:50:02;14.90;99.90
1568;DHT22;777;47.156;8.326;2023-05-10T12:52:30;15.10;99.90
1568;DHT22;777;47.156;8.326;2023-05-10T12:54:58;15.00;99.90
1568;DHT22;777;47.156;8.326;2023-05-10T12:57:27;14.70;99.90
1568;DHT22;777;47.156;8.326;2023-05-10T12:59:54;14.60;99.90
1568;DHT22;777;47.156;8.326;2023-05-10T13:02:21;14.60;99.90
1568;DHT22;777;47.156;8.326;2023-05-10T13:04:50;14.90;99.90
1568;DHT22;777;47.156;8.326;2023-05-10T13:07:17;15.00;99.90
1568;DHT22;777;47.156;8.326;2023-05-10T13:09:44;14.50;99.90
1568;DHT22;777;47.156;8.326;2023-05-10T13:12:11;14.30;99.90
1568;DHT22;777;47.156;8.326;2023-05-10T13:14:39;13.00;99.90
1568;DHT22;777;47.156;8.326;2023-05-10T13:17:07;12.00;99.90
1568;DHT22;777;47.156;8.326;2023-05-10T13:19:34;11.00;99.90
1568;DHT22;777;47.156;8.326;2023-05-10T13:22:01;10.90;99.90
1568;DHT22;777;47.156;8.326;2023-05-10T13:24:28;11.10;99.90
1568;DHT22;777;47.156;8.326;2023-05-10T13:26:55;11.40;99.90
1568;DHT22;777;47.156;8.326;2023-05-10T13:29:22;12.20;99.90
1568;DHT22;777;47.156;8.326;2023-05-10T13:31:51;12.70;99.90
1568;DHT22;777;47.156;8.326;2023-05-10T13:34:18;13.10;99.90
1568;DHT22;777;47.156;8.326;2023-05-10T13:36:46;13.30;99.90
1568;DHT22;777;47.156;8.326;2023-05-10T13:39:13;13.20;99.90
1568;DHT22;777;47.156;8.326;2023-05-10T13:41:40;13.20;99.90
1568;DHT22;777;47.156;8.326;2023-05-10T13:44:07;13.60;99.90
1568;DHT22;777;47.156;8.326;2023-05-10T13:46:34;14.50;99.90
1568;DHT22;777;47.156;8.326;2023-05-10T13:49:03;15.70;99.90
1568;DHT22;777;47.156;8.326;2023-05-10T13:51:30;16.50;99.90
1568;DHT22;777;47.156;8.326;2023-05-10T13:53:58;17.20;99.90
1568;DHT22;777;47.156;8.326;2023-05-10T13:56:25;17.10;99.90
1568;DHT22;777;47.156;8.326;2023-05-10T13:58:53;17.20;99.90
1568;DHT22;777;47.156;8.326;2023-05-10T14:01:20;17.60;99.90
1568;DHT22;777;47.156;8.326;2023-05-10T14:03:47;17.50;99.90
1568;DHT22;777;47.156;8.326;2023-05-10T14:06:15;17.50;99.90
1568;DHT22;777;47.156;8.326;2023-05-10T14:08:42;18.00;99.90
1568;DHT22;777;47.156;8.326;2023-05-10T14:11:09;18.60;99.90
1568;DHT22;777;47.156;8.326;2023-05-10T14:13:37;18.50;99.90
1568;DHT22;777;47.156;8.326;2023-05-10T14:16:05;18.30;99.90
1568;DHT22;777;47.156;8.326;2023-05-10T14:18:32;18.20;99.90
1568;DHT22;777;47.156;8.326;2023-05-10T14:20:59;17.40;99.90
1568;DHT22;777;47.156;8.326;2023-05-10T14:23:28;16.40;99.90
1568;DHT22;777;47.156;8.326;2023-05-10T14:25:55;16.30;99.90
1568;DHT22;777;47.156;8.326;2023-05-10T14:28:23;16.60;99.90
1568;DHT22;777;47.156;8.326;2023-05-10T14:30:50;16.70;99.90
1568;DHT22;777;47.156;8.326;2023-05-10T14:33:17;17.00;99.90
1568;DHT22;777;47.156;8.326;2023-05-10T14:35:45;16.60;99.90
1568;DHT22;777;47.156;8.326;2023-05-10T14:38:12;16.50;99.90
1568;DHT22;777;47.156;8.326;2023-05-10T14:40:41;16.70;99.90
1568;DHT22;777;47.156;8.326;2023-05-10T14:43:08;16.50;99.90
1568;DHT22;777;47.156;8.326;2023-05-10T14:45:35;16.90;99.90
1568;DHT22;777;47.156;8.326;2023-05-10T14:48:02;16.20;99.90
1568;DHT22;777;47.156;8.326;2023-05-10T14:50:30;16.00;99.90
1568;DHT22;777;47.156;8.326;2023-05-10T14:52:57;15.90;99.90
1568;DHT22;777;47.156;8.326;2023-05-10T14:55:24;15.50;99.90
1568;DHT22;777;47.156;8.326;2023-05-10T14:57:53;15.50;99.90
1568;DHT22;777;47.156;8.326;2023-05-10T15:00:21;15.40;99.90
1568;DHT22;777;47.156;8.326;2023-05-10T15:02:48;15.20;99.90
1568;DHT22;777;47.156;8.326;2023-05-10T15:05:15;15.20;99.90
1568;DHT22;777;47.156;8.326;2023-05-10T15:07:42;15.00;99.90
1568;DHT22;777;47.156;8.326;2023-05-10T15:10:09;14.50;99.90
1568;DHT22;777;47.156;8.326;2023-05-10T15:12:36;14.60;99.90
1568;DHT22;777;47.156;8.326;2023-05-10T15:15:06;14.50;99.90
1568;DHT22;777;47.156;8.326;2023-05-10T15:17:33;14.50;99.90
1568;DHT22;777;47.156;8.326;2023-05-10T15:20:00;14.30;99.90
1568;DHT22;777;47.156;8.326;2023-05-10T15:22:28;14.40;99.90
1568;DHT22;777;47.156;8.326;2023-05-10T15:24:57;14.40;99.90
1568;DHT22;777;47.156;8.326;2023-05-10T15:27:24;13.90;99.90
1568;DHT22;777;47.156;8.326;2023-05-10T15:29:52;12.70;99.90
1568;DHT22;777;47.156;8.326;2023-05-10T15:32:20;12.20;99.90
1568;DHT22;777;47.156;8.326;2023-05-10T15:34:47;12.20;99.90
1568;DHT22;777;47.156;8.326;2023-05-10T15:37:14;12.30;99.90
1568;DHT22;777;47.156;8.326;2023-05-10T15:39:41;12.30;99.90
1568;DHT22;777;47.156;8.326;2023-05-10T15:42:08;12.20;99.90
1568;DHT22;777;47.156;8.326;2023-05-10T15:44:35;12.20;99.90
1568;DHT22;777;47.156;8.326;2023-05-10T15:47:04;12.20;99.90
1568;DHT22;777;47.156;8.326;2023-05-10T15:49:32;12.20;99.90
1568;DHT22;777;47.156;8.326;2023-05-10T15:51:59;12.20;99.90
1568;DHT22;777;47.156;8.326;2023-05-10T15:54:26;12.40;99.90
1568;DHT22;777;47.156;8.326;2023-05-10T15:56:53;12.70;99.90
1568;DHT22;777;47.156;8.326;2023-05-10T15:59:20;12.60;99.90
1568;DHT22;777;47.156;8.326;2023-05-10T16:01:48;12.30;99.90
1568;DHT22;777;47.156;8.326;2023-05-10T16:04:15;12.10;99.90
1568;DHT22;777;47.156;8.326;2023-05-10T16:06:44;12.10;99.90
1568;DHT22;777;47.156;8.326;2023-05-10T16:09:11;12.10;99.90
1568;DHT22;777;47.156;8.326;2023-05-10T16:11:41;12.20;99.90
1568;DHT22;777;47.156;8.326;2023-05-10T16:14:09;12.10;99.90
1568;DHT22;777;47.156;8.326;2023-05-10T16:16:36;12.10;99.90
1568;DHT22;777;47.156;8.326;2023-05-10T16:19:03;12.00;99.90
1568;DHT22;777;47.156;8.326;2023-05-10T16:21:30;12.10;99.90
1568;DHT22;777;47.156;8.326;2023-05-10T16:24:01;12.20;99.90
1568;DHT22;777;47.156;8.326;2023-05-10T16:26:28;12.20;99.90
1568;DHT22;777;47.156;8.326;2023-05-10T16:28:55;12.20;99.90
1568;DHT22;777;47.156;8.326;2023-05-10T16:31:23;12.30;99.90